Time;durP1;ratioP1;P1;durP2;ratioP2;P2;SDS_P1;SDS_P2;PMS_P1;PMS_P2;Temp;Humidity;BMP_temperature;BMP_pressure;BME280_temperature;BME280_humidity;BME280_pressure;Samples;Min_cycle;Max_cycle;Signal;HPM_P1;HPM_P2
2023/10/05 00:03:30;;;;;;;;;;;;;;;17.23;43.44;100296.78;5071961;28;19916;-77
2023/10/05 00:06:03;;;;;;;;;;;;;;;17.15;44.08;100283.63;5072207;28;19921;-77
2023/10/05 00:08:28;;;;;;;;;;;;;;;17.12;44.01;100294.69;5070753;28;19912;-77
2023/10/05 00:10:54;;;;;;;;;;;;;;;17.06;44.46;100288.28;5072087;28;19920;-77
2023/10/05 00:13:19;;;;;;;;;;;;;;;17.01;43.97;100288.06;5072022;28;19916;-77
2023/10/05 00:15:45;;;;;;;;;;;;;;;17.01;44.00;100296.09;5071983;28;19916;-76
2023/10/05 00:18:14;;;;;;;;;;;;;;;17.08;43.63;100293.44;5072294;28;20321;-75
2023/10/05 00:20:41;;;;;;;;;;;;;;;17.05;43.89;100296.50;5072403;28;19913;-76
2023/10/05 00:23:10;;;;;;;;;;;;;;;17.04;44.10;100290.34;5072904;28;19913;-76
2023/10/05 00:25:37;;;;;;;;;;;;;;;17.01;44.18;100296.09;5074721;28;19917;-76
2023/10/05 00:28:09;;;;;;;;;;;;;;;16.95;44.02;100291.56;5071881;28;20385;-76
2023/10/05 00:30:34;;;;;;;;;;;;;;;16.92;43.43;100296.47;5071809;28;20430;-77
2023/10/05 00:33:00;;;;;;;;;;;;;;;16.85;44.11;100301.78;5072462;28;19999;-77
2023/10/05 00:35:32;;;;;;;;;;;;;;;16.85;43.83;100299.13;5073426;28;20405;-78
2023/10/05 00:38:04;;;;;;;;;;;;;;;16.82;43.69;100302.19;5072527;28;19917;-78
2023/10/05 00:40:35;;;;;;;;;;;;;;;16.79;44.54;100302.56;5072198;28;19967;-78
2023/10/05 00:43:04;;;;;;;;;;;;;;;16.75;43.75;100304.00;5071759;28;19916;-77
2023/10/05 00:45:31;;;;;;;;;;;;;;;16.68;44.58;100301.31;5071361;28;19946;-78
2023/10/05 00:48:08;;;;;;;;;;;;;;;16.67;44.55;100299.66;5071559;28;19913;-78
2023/10/05 00:50:34;;;;;;;;;;;;;;;16.69;43.89;100299.47;5071547;28;20381;-77
2023/10/05 00:52:59;;;;;;;;;;;;;;;16.67;44.33;100301.50;5072228;28;19919;-78
2023/10/05 00:55:25;;;;;;;;;;;;;;;16.64;44.55;100296.53;5075390;28;19913;-77
2023/10/05 00:57:51;;;;;;;;;;;;;;;16.58;44.05;100300.81;5075416;28;19955;-77
2023/10/05 01:00:29;;;;;;;;;;;;;;;16.53;44.84;100304.09;5075470;28;19923;-78
2023/10/05 01:05:49;;;;;;;;;;;;;;;16.43;45.59;100300.97;5075051;28;20428;-78
2023/10/05 01:08:17;;;;;;;;;;;;;;;16.37;45.09;100296.41;5075050;28;19912;-77
2023/10/05 01:10:44;;;;;;;;;;;;;;;16.35;44.81;100290.47;5075171;28;19912;-77
2023/10/05 01:13:28;;;;;;;;;;;;;;;16.31;45.13;100288.38;5075214;28;19947;-78
2023/10/05 01:15:54;;;;;;;;;;;;;;;16.27;44.42;100295.94;5075174;28;20469;-78
2023/10/05 01:18:23;;;;;;;;;;;;;;;16.27;45.70;100295.09;5075034;28;19916;-77
2023/10/05 01:20:50;;;;;;;;;;;;;;;16.29;44.69;100295.72;5074992;28;19912;-77
2023/10/05 01:23:15;;;;;;;;;;;;;;;16.22;44.73;100287.69;5074804;28;19916;-78
2023/10/05 01:25:40;;;;;;;;;;;;;;;16.14;44.52;100283.34;5074572;28;19917;-78
2023/10/05 01:28:07;;;;;;;;;;;;;;;16.09;45.52;100287.63;5074650;28;19918;-78
2023/10/05 01:30:37;;;;;;;;;;;;;;;16.03;45.10;100285.75;5074689;28;19971;-78
2023/10/05 01:33:03;;;;;;;;;;;;;;;16.06;45.25;100285.34;5074754;28;20388;-77
2023/10/05 01:35:29;;;;;;;;;;;;;;;16.10;45.45;100281.28;5074587;28;20421;-78
2023/10/05 01:37:54;;;;;;;;;;;;;;;16.15;44.65;100292.16;5074568;28;20008;-78
2023/10/05 01:42:47;;;;;;;;;;;;;;;16.00;45.10;100283.47;5074590;28;19959;-77
2023/10/05 01:45:15;;;;;;;;;;;;;;;16.06;45.14;100283.50;5074539;28;19923;-77
2023/10/05 01:47:43;;;;;;;;;;;;;;;16.10;45.33;100283.94;5074544;28;20070;-78
2023/10/05 01:50:14;;;;;;;;;;;;;;;16.13;44.81;100281.72;5074512;28;19999;-78
2023/10/05 01:52:40;;;;;;;;;;;;;;;16.13;44.78;100287.03;5074535;28;20397;-77
2023/10/05 01:55:08;;;;;;;;;;;;;;;16.04;45.20;100296.19;5074333;28;19916;-77
2023/10/05 01:57:33;;;;;;;;;;;;;;;16.04;44.80;100290.06;5074578;28;19927;-77
2023/10/05 01:59:59;;;;;;;;;;;;;;;16.04;45.45;100298.88;5074838;28;19917;-78
2023/10/05 02:02:28;;;;;;;;;;;;;;;15.99;45.98;100303.13;5073992;28;20313;-77
2023/10/05 02:04:53;;;;;;;;;;;;;;;16.00;44.92;100294.13;5073201;28;19916;-77
2023/10/05 02:07:19;;;;;;;;;;;;;;;15.99;45.41;100297.81;5074400;28;19919;-77
2023/10/05 02:09:44;;;;;;;;;;;;;;;16.04;45.22;100298.88;5072899;28;19999;-77
2023/10/05 02:12:10;;;;;;;;;;;;;;;16.06;45.56;100298.66;5074093;28;19913;-78
2023/10/05 02:14:41;;;;;;;;;;;;;;;16.05;45.54;100299.69;5074130;28;19960;-77
2023/10/05 02:17:08;;;;;;;;;;;;;;;15.97;46.22;100292.66;5075595;28;20378;-78
2023/10/05 02:19:36;;;;;;;;;;;;;;;15.90;46.52;100291.81;5076262;28;19993;-77
2023/10/05 02:22:03;;;;;;;;;;;;;;;15.86;46.05;100301.19;5074010;28;19913;-77
2023/10/05 02:24:30;;;;;;;;;;;;;;;15.82;46.46;100300.75;5073754;28;20448;-78
2023/10/05 02:29:24;;;;;;;;;;;;;;;15.72;45.95;100316.25;5073795;28;19917;-77
2023/10/05 02:34:38;;;;;;;;;;;;;;;15.68;46.74;100319.50;5073729;28;19912;-78
2023/10/05 02:37:08;;;;;;;;;;;;;;;15.69;47.12;100316.63;5073449;28;19970;-77
2023/10/05 02:39:37;;;;;;;;;;;;;;;15.70;46.75;100320.94;5073357;28;20034;-77
2023/10/05 02:42:05;;;;;;;;;;;;;;;15.77;46.02;100324.47;5073590;28;19917;-77
2023/10/05 02:44:32;;;;;;;;;;;;;;;15.85;46.35;100319.00;5073545;28;19955;-77
2023/10/05 02:46:59;;;;;;;;;;;;;;;15.95;45.23;100320.50;5073375;28;19912;-77
2023/10/05 02:49:25;;;;;;;;;;;;;;;15.96;45.35;100320.31;5073242;28;19913;-78
2023/10/05 02:51:52;;;;;;;;;;;;;;;15.95;45.42;100325.84;5073186;28;19919;-78
2023/10/05 02:54:18;;;;;;;;;;;;;;;15.94;45.77;100317.03;5071799;28;19912;-78
2023/10/05 02:56:44;;;;;;;;;;;;;;;15.91;45.43;100322.75;5073310;28;19920;-77
2023/10/05 02:59:10;;;;;;;;;;;;;;;15.88;46.39;100320.47;5072012;28;20003;-78
2023/10/05 03:01:37;;;;;;;;;;;;;;;15.81;46.35;100320.41;5073093;28;20022;-77
2023/10/05 03:04:44;;;;;;;;;;;;;;;15.77;46.63;100321.81;5072907;28;19982;-78
2023/10/05 03:06:54;;;;;;;;;;;;;;;15.80;45.73;100321.44;5071675;28;20440;-77
2023/10/05 03:09:21;;;;;;;;;;;;;;;15.79;46.16;100322.44;5072784;28;19969;-77
2023/10/05 03:11:47;;;;;;;;;;;;;;;15.79;46.17;100317.13;5073212;28;19919;-77
2023/10/05 03:14:16;;;;;;;;;;;;;;;15.83;46.39;100314.91;5072892;28;19912;-77
2023/10/05 03:16:47;;;;;;;;;;;;;;;15.79;45.44;100313.63;5071391;28;20373;-77
2023/10/05 03:19:15;;;;;;;;;;;;;;;15.67;45.68;100315.19;5072743;28;19912;-77
2023/10/05 03:21:41;;;;;;;;;;;;;;;15.62;46.31;100315.75;5071271;28;19943;-77
2023/10/05 03:24:13;;;;;;;;;;;;;;;15.54;46.35;100316.66;5072439;28;19952;-77
2023/10/05 03:26:39;;;;;;;;;;;;;;;15.50;47.16;100322.53;5072487;28;19916;-77
2023/10/05 03:29:04;;;;;;;;;;;;;;;15.47;46.21;100323.75;5072644;28;19912;-77
2023/10/05 03:31:38;;;;;;;;;;;;;;;15.44;47.04;100329.47;5072625;28;19908;-78
2023/10/05 03:34:07;;;;;;;;;;;;;;;15.39;47.13;100325.72;5071845;28;19959;-79
2023/10/05 03:36:33;;;;;;;;;;;;;;;15.32;46.92;100328.31;5072581;28;19913;-76
2023/10/05 03:39:02;;;;;;;;;;;;;;;15.37;46.63;100330.41;5072363;28;19912;-79
2023/10/05 03:41:28;;;;;;;;;;;;;;;15.49;46.10;100334.22;5072406;28;19912;-78
2023/10/05 03:43:55;;;;;;;;;;;;;;;15.50;46.57;100327.88;5072366;28;19913;-76
2023/10/05 03:46:22;;;;;;;;;;;;;;;15.56;46.40;100327.09;5072139;28;19955;-78
2023/10/05 03:48:48;;;;;;;;;;;;;;;15.60;45.91;100331.06;5072206;28;19917;-78
2023/10/05 03:51:17;;;;;;;;;;;;;;;15.60;46.69;100324.91;5072146;28;19962;-78
2023/10/05 03:53:48;;;;;;;;;;;;;;;15.62;46.53;100329.06;5072092;28;19913;-78
2023/10/05 03:56:15;;;;;;;;;;;;;;;15.65;46.59;100326.03;5071926;28;19943;-78
2023/10/05 03:58:40;;;;;;;;;;;;;;;15.60;47.26;100323.06;5072037;28;19920;-78
2023/10/05 04:01:10;;;;;;;;;;;;;;;15.53;47.48;100335.47;5072081;28;19912;-78
2023/10/05 04:03:36;;;;;;;;;;;;;;;15.47;46.66;100329.06;5071832;28;19983;-78
2023/10/05 04:06:04;;;;;;;;;;;;;;;15.43;47.28;100327.81;5076253;28;19920;-76
2023/10/05 04:08:31;;;;;;;;;;;;;;;15.42;46.79;100320.00;5078550;28;19912;-77
2023/10/05 04:10:59;;;;;;;;;;;;;;;15.45;46.73;100331.09;5072580;28;19951;-77
2023/10/05 04:13:26;;;;;;;;;;;;;;;15.47;47.30;100331.72;5071990;28;20403;-76
2023/10/05 04:15:51;;;;;;;;;;;;;;;15.49;46.95;100329.72;5071723;28;19912;-77
2023/10/05 04:18:20;;;;;;;;;;;;;;;15.47;46.82;100328.25;5071936;28;19913;-77
2023/10/05 04:20:46;;;;;;;;;;;;;;;15.36;47.33;100332.25;5071750;28;19916;-77
2023/10/05 04:23:25;;;;;;;;;;;;;;;15.37;47.14;100339.22;5071803;28;19958;-78
2023/10/05 04:25:52;;;;;;;;;;;;;;;15.29;46.07;100335.84;5071631;28;20385;-77
2023/10/05 04:28:22;;;;;;;;;;;;;;;15.13;48.01;100343.06;5071233;28;20003;-77
2023/10/05 04:30:49;;;;;;;;;;;;;;;15.16;47.86;100336.53;5071846;28;19912;-77
2023/10/05 04:33:14;;;;;;;;;;;;;;;15.14;47.85;100336.72;5071630;28;19912;-77
2023/10/05 04:35:44;;;;;;;;;;;;;;;15.07;47.45;100343.00;5071573;28;19913;-77
2023/10/05 04:38:10;;;;;;;;;;;;;;;15.09;47.14;100346.28;5071619;28;19919;-77
2023/10/05 04:40:38;;;;;;;;;;;;;;;15.16;47.24;100348.00;5071734;28;19912;-77
2023/10/05 04:43:06;;;;;;;;;;;;;;;15.25;46.97;100346.03;5071914;28;19935;-77
2023/10/05 04:45:32;;;;;;;;;;;;;;;15.27;46.77;100354.66;5071717;28;20377;-76
2023/10/05 04:48:00;;;;;;;;;;;;;;;15.31;47.22;100350.63;5070207;28;19920;-77
2023/10/05 04:50:27;;;;;;;;;;;;;;;15.32;47.72;100354.91;5071625;28;19913;-76
2023/10/05 04:52:52;;;;;;;;;;;;;;;15.35;47.06;100353.72;5070379;28;19913;-78
2023/10/05 04:55:22;;;;;;;;;;;;;;;15.33;46.92;100358.41;5071727;28;19920;-78
2023/10/05 04:57:52;;;;;;;;;;;;;;;15.28;47.71;100356.31;5071904;28;19920;-78
2023/10/05 05:05:52;;;;;;;;;;;;;;;15.18;47.54;100364.59;5071329;28;19952;-78
2023/10/05 05:08:18;;;;;;;;;;;;;;;15.14;47.88;100373.97;5070271;28;19995;-78
2023/10/05 05:10:43;;;;;;;;;;;;;;;15.18;47.13;100369.91;5071382;28;20503;-77
2023/10/05 05:13:08;;;;;;;;;;;;;;;15.18;48.07;100377.06;5071496;28;19966;-78
2023/10/05 05:15:38;;;;;;;;;;;;;;;15.29;47.76;100376.59;5066655;28;19967;-76
2023/10/05 05:18:03;;;;;;;;;;;;;;;15.32;47.15;100370.88;5059869;28;19916;-76
2023/10/05 05:20:28;;;;;;;;;;;;;;;15.40;47.76;100372.59;5071339;28;19991;-78
2023/10/05 05:22:54;;;;;;;;;;;;;;;15.41;47.49;100374.25;5071312;28;19912;-76
2023/10/05 05:25:19;;;;;;;;;;;;;;;15.44;47.91;100365.88;5061685;28;19940;-77
2023/10/05 05:27:45;;;;;;;;;;;;;;;15.45;46.35;100376.34;5051195;28;20455;-77
2023/10/05 05:30:23;;;;;;;;;;;;;;;15.35;47.13;100375.00;5067156;28;20427;-77
2023/10/05 05:32:51;;;;;;;;;;;;;;;15.35;47.64;100372.34;5071335;28;19917;-77
2023/10/05 05:35:16;;;;;;;;;;;;;;;15.43;47.31;100373.06;5054533;28;20290;-78
2023/10/05 05:37:42;;;;;;;;;;;;;;;15.45;48.03;100381.66;5052573;28;19919;-77
2023/10/05 05:40:12;;;;;;;;;;;;;;;15.48;47.34;100383.13;5068409;28;19917;-77
2023/10/05 05:42:39;;;;;;;;;;;;;;;15.44;47.93;100381.84;5075283;28;19919;-77
2023/10/05 05:45:09;;;;;;;;;;;;;;;15.40;47.17;100380.59;5068155;28;20389;-77
2023/10/05 05:47:35;;;;;;;;;;;;;;;15.42;48.76;100395.34;5054643;28;20025;-77
2023/10/05 05:50:01;;;;;;;;;;;;;;;15.40;49.08;100392.06;5054555;28;20405;-78
2023/10/05 05:52:26;;;;;;;;;;;;;;;15.41;48.91;100390.22;5054601;28;19919;-77
2023/10/05 05:54:52;;;;;;;;;;;;;;;15.45;47.67;100399.47;5054493;28;19913;-77
2023/10/05 05:57:20;;;;;;;;;;;;;;;15.46;48.81;100407.28;5062793;28;19942;-77
2023/10/05 05:59:46;;;;;;;;;;;;;;;15.50;48.57;100399.72;5060265;28;19916;-77
2023/10/05 06:02:11;;;;;;;;;;;;;;;15.60;47.06;100404.78;5053824;28;20047;-78
2023/10/05 06:04:38;;;;;;;;;;;;;;;15.62;48.76;100400.94;5053802;28;20390;-78
2023/10/05 06:07:11;;;;;;;;;;;;;;;15.71;47.58;100407.78;5054475;28;20011;-78
2023/10/05 06:09:37;;;;;;;;;;;;;;;15.85;47.76;100408.72;5063276;28;19923;-78
2023/10/05 06:12:02;;;;;;;;;;;;;;;15.90;47.67;100406.31;5074747;28;20336;-77
2023/10/05 06:14:28;;;;;;;;;;;;;;;15.98;47.56;100408.84;5072801;28;20359;-78
2023/10/05 06:16:53;;;;;;;;;;;;;;;16.09;47.93;100411.00;5068387;28;19916;-78
2023/10/05 06:19:18;;;;;;;;;;;;;;;16.18;47.89;100412.50;5064463;28;19916;-78
2023/10/05 06:21:45;;;;;;;;;;;;;;;16.26;47.67;100414.19;5073249;28;20013;-78
2023/10/05 06:24:10;;;;;;;;;;;;;;;16.37;47.24;100419.03;5072144;28;19920;-79
2023/10/05 06:26:37;;;;;;;;;;;;;;;16.52;47.49;100414.41;5074227;28;19919;-78
2023/10/05 06:29:04;;;;;;;;;;;;;;;16.64;47.37;100414.69;5072372;28;19923;-78
2023/10/05 06:31:30;;;;;;;;;;;;;;;16.79;46.77;100417.25;5074033;28;19912;-78
2023/10/05 06:33:55;;;;;;;;;;;;;;;16.90;46.44;100423.88;5073928;28;19921;-78
2023/10/05 06:36:20;;;;;;;;;;;;;;;17.00;46.34;100427.81;5073710;28;19917;-78
2023/10/05 06:38:45;;;;;;;;;;;;;;;17.09;46.54;100423.16;5069255;28;20310;-77
2023/10/05 06:41:11;;;;;;;;;;;;;;;17.17;46.71;100419.50;5066399;28;19995;-78
2023/10/05 06:43:37;;;;;;;;;;;;;;;17.24;46.33;100417.69;5071363;28;19923;-76
2023/10/05 06:46:17;;;;;;;;;;;;;;;17.33;46.12;100432.50;5057328;28;20370;-77
2023/10/05 06:48:43;;;;;;;;;;;;;;;17.40;46.70;100431.50;5071047;28;19921;-76
2023/10/05 06:51:08;;;;;;;;;;;;;;;17.43;46.36;100423.09;5070150;28;20300;-79
2023/10/05 06:53:33;;;;;;;;;;;;;;;17.55;46.13;100425.19;5071346;28;19920;-78
2023/10/05 06:55:59;;;;;;;;;;;;;;;17.65;45.70;100430.94;5055103;28;19935;-78
2023/10/05 06:58:24;;;;;;;;;;;;;;;17.75;45.66;100434.09;5060257;28;19948;-78
2023/10/05 07:00:50;;;;;;;;;;;;;;;17.83;45.53;100435.72;5072186;28;19923;-78
2023/10/05 07:03:15;;;;;;;;;;;;;;;17.91;45.86;100438.25;5070434;28;19921;-77
2023/10/05 07:05:40;;;;;;;;;;;;;;;18.00;45.72;100439.69;5072963;28;20309;-78
2023/10/05 07:08:07;;;;;;;;;;;;;;;18.09;45.87;100441.13;5071161;28;19916;-78
2023/10/05 07:10:32;;;;;;;;;;;;;;;18.18;45.31;100445.25;5062592;28;19916;-78
2023/10/05 07:12:58;;;;;;;;;;;;;;;18.30;45.17;100445.44;5066409;28;19920;-78
2023/10/05 07:15:23;;;;;;;;;;;;;;;18.40;45.02;100449.34;5069222;28;19960;-77
2023/10/05 07:17:49;;;;;;;;;;;;;;;18.52;44.89;100446.88;5070826;28;20364;-76
2023/10/05 07:20:17;;;;;;;;;;;;;;;18.64;44.82;100441.78;5062717;28;19923;-77
2023/10/05 07:22:44;;;;;;;;;;;;;;;18.74;45.60;100442.16;5072812;28;19919;-77
2023/10/05 07:25:19;;;;;;;;;;;;;;;18.80;44.37;100446.69;5072883;28;19923;-78
2023/10/05 07:27:44;;;;;;;;;;;;;;;18.90;44.30;100447.06;5064017;28;19970;-77
2023/10/05 07:30:10;;;;;;;;;;;;;;;18.99;44.24;100444.97;5063863;28;19916;-77
2023/10/05 07:32:35;;;;;;;;;;;;;;;19.13;44.16;100449.25;5068847;28;20341;-75
2023/10/05 07:35:01;;;;;;;;;;;;;;;19.22;44.15;100444.47;5072407;28;19921;-76
2023/10/05 07:37:26;;;;;;;;;;;;;;;19.31;44.38;100449.38;5063088;28;19924;-76
2023/10/05 07:39:52;;;;;;;;;;;;;;;19.39;43.66;100451.00;5052443;28;19913;-78
2023/10/05 07:42:17;;;;;;;;;;;;;;;19.46;43.08;100451.81;5053611;28;19917;-77
2023/10/05 07:44:46;;;;;;;;;;;;;;;19.53;43.86;100455.31;5052064;28;19969;-77
2023/10/05 07:47:11;;;;;;;;;;;;;;;19.60;43.16;100450.72;5061041;28;20015;-78
2023/10/05 07:49:37;;;;;;;;;;;;;;;19.65;42.46;100447.41;5069507;28;20535;-77
2023/10/05 07:52:03;;;;;;;;;;;;;;;19.73;42.56;100446.31;5071477;28;19916;-76
2023/10/05 07:54:30;;;;;;;;;;;;;;;19.81;42.38;100449.56;5072376;28;20011;-76
2023/10/05 07:56:55;;;;;;;;;;;;;;;19.93;42.50;100445.16;5072599;28;19923;-77
2023/10/05 07:59:21;;;;;;;;;;;;;;;20.02;42.48;100450.25;5075984;28;19924;-78
2023/10/05 08:01:49;;;;;;;;;;;;;;;20.11;42.83;100454.34;5073439;28;19916;-75
2023/10/05 08:04:14;;;;;;;;;;;;;;;20.20;42.02;100447.66;5060588;28;19921;-78
2023/10/05 08:06:43;;;;;;;;;;;;;;;20.26;41.95;100450.28;5053301;28;19943;-78
2023/10/05 08:09:14;;;;;;;;;;;;;;;20.34;41.97;100446.50;5052153;28;20019;-76
2023/10/05 08:11:40;;;;;;;;;;;;;;;20.46;41.71;100446.63;5061100;28;19917;-78
2023/10/05 08:14:07;;;;;;;;;;;;;;;20.58;41.43;100444.88;5071724;28;19924;-78
2023/10/05 08:16:32;;;;;;;;;;;;;;;20.72;41.52;100450.94;5058318;28;19946;-77
2023/10/05 08:18:57;;;;;;;;;;;;;;;20.83;41.53;100437.63;5065668;28;19917;-78
2023/10/05 08:21:22;;;;;;;;;;;;;;;20.92;41.12;100438.97;5066310;28;19916;-77
2023/10/05 08:23:51;;;;;;;;;;;;;;;21.00;40.98;100435.16;5078726;28;20015;-78
2023/10/05 08:26:16;;;;;;;;;;;;;;;21.10;40.69;100427.41;5061415;28;19916;-77
2023/10/05 08:28:42;;;;;;;;;;;;;;;21.20;40.53;100435.75;5070958;28;20393;-78
2023/10/05 08:31:07;;;;;;;;;;;;;;;21.31;40.50;100428.00;5071450;28;19939;-77
2023/10/05 08:33:35;;;;;;;;;;;;;;;21.43;40.64;100431.56;5072969;28;19916;-78
2023/10/05 08:36:06;;;;;;;;;;;;;;;21.52;40.05;100424.81;5058868;28;19954;-74
2023/10/05 08:38:35;;;;;;;;;;;;;;;21.63;40.18;100426.75;5070844;28;19916;-78
2023/10/05 08:41:06;;;;;;;;;;;;;;;21.74;40.21;100425.13;5050150;28;19928;-77
2023/10/05 08:43:32;;;;;;;;;;;;;;;21.83;39.62;100426.44;5050783;28;19913;-77
2023/10/05 08:46:03;;;;;;;;;;;;;;;21.95;39.82;100429.16;5070805;28;20400;-77
2023/10/05 08:48:29;;;;;;;;;;;;;;;22.04;39.56;100423.25;5068434;28;20385;-76
2023/10/05 08:50:58;;;;;;;;;;;;;;;22.12;39.60;100416.72;5069191;28;19920;-76
2023/10/05 08:53:23;;;;;;;;;;;;;;;22.24;39.37;100419.41;5068945;28;20004;-77
2023/10/05 08:55:51;;;;;;;;;;;;;;;22.35;39.53;100411.38;5069618;28;19913;-76
2023/10/05 08:58:18;;;;;;;;;;;;;;;22.44;39.20;100409.16;5051203;28;20372;-77
2023/10/05 09:00:44;;;;;;;;;;;;;;;22.54;38.68;100416.63;5060002;28;20003;-77
2023/10/05 09:08:52;;;;;;;;;;;;;;;22.88;38.33;100409.59;5063170;28;19970;-78
2023/10/05 09:11:26;;;;;;;;;;;;;;;23.01;38.27;100406.63;5067112;28;19928;-78
2023/10/05 09:13:52;;;;;;;;;;;;;;;23.18;38.21;100402.16;5063771;28;19963;-77
2023/10/05 09:16:41;;;;;;;;;;;;;;;23.33;37.71;100402.44;5075088;28;20534;-76
2023/10/05 09:19:07;;;;;;;;;;;;;;;23.46;38.10;100399.44;5054654;28;19912;-77
2023/10/05 09:21:50;;;;;;;;;;;;;;;23.50;37.04;100402.47;5054880;28;19951;-76
2023/10/05 09:24:22;;;;;;;;;;;;;;;23.56;36.52;100395.34;5065171;28;20448;-78
2023/10/05 09:26:51;;;;;;;;;;;;;;;23.64;37.40;100397.63;5075382;28;19920;-76
2023/10/05 09:29:23;;;;;;;;;;;;;;;23.68;37.18;100396.91;5062292;28;20377;-77
2023/10/05 09:31:51;;;;;;;;;;;;;;;23.66;36.89;100393.63;5074843;28;19920;-76
2023/10/05 09:34:36;;;;;;;;;;;;;;;23.65;36.78;100391.19;5075047;28;20367;-77
2023/10/05 09:37:05;;;;;;;;;;;;;;;23.74;37.08;100387.84;5074290;28;19920;-77
2023/10/05 09:39:44;;;;;;;;;;;;;;;23.89;36.94;100397.28;5071409;28;19944;-76
2023/10/05 09:42:25;;;;;;;;;;;;;;;24.07;36.28;100384.38;5071807;28;20293;-77
2023/10/05 09:44:58;;;;;;;;;;;;;;;24.31;36.80;100376.09;5072222;28;19982;-77
2023/10/05 09:47:27;;;;;;;;;;;;;;;24.55;35.56;100382.97;5074373;28;20005;-75
2023/10/05 09:49:57;;;;;;;;;;;;;;;24.75;35.23;100379.69;5073136;28;19986;-76
2023/10/05 09:52:36;;;;;;;;;;;;;;;24.93;35.20;100375.88;5069046;28;19917;-78
2023/10/05 09:55:03;;;;;;;;;;;;;;;25.02;35.11;100372.50;5071184;28;20411;-76
2023/10/05 09:57:31;;;;;;;;;;;;;;;25.16;34.61;100370.22;5074213;28;19913;-77
2023/10/05 09:59:59;;;;;;;;;;;;;;;25.39;33.83;100366.44;5072331;28;19916;-78
2023/10/05 10:02:33;;;;;;;;;;;;;;;25.52;34.72;100360.59;5061449;28;19956;-78
2023/10/05 10:05:00;;;;;;;;;;;;;;;25.67;32.42;100356.44;5070720;28;19928;-78
2023/10/05 10:07:32;;;;;;;;;;;;;;;25.78;33.11;100358.16;5072287;28;20023;-76
2023/10/05 10:09:58;;;;;;;;;;;;;;;25.94;32.72;100354.47;5066307;28;20400;-77
2023/10/05 10:12:33;;;;;;;;;;;;;;;26.03;33.24;100355.66;5054805;28;20334;-78
2023/10/05 10:14:59;;;;;;;;;;;;;;;26.05;33.57;100355.41;5053790;28;20372;-77
2023/10/05 10:17:31;;;;;;;;;;;;;;;26.05;34.00;100352.69;5066534;28;20323;-77
2023/10/05 10:20:28;;;;;;;;;;;;;;;26.06;32.85;100338.09;5071935;28;19967;-77
2023/10/05 10:22:55;;;;;;;;;;;;;;;26.01;33.26;100347.00;5073828;28;19952;-77
2023/10/05 10:25:27;;;;;;;;;;;;;;;25.86;33.00;100328.72;5055437;28;20035;-77
2023/10/05 10:28:09;;;;;;;;;;;;;;;25.89;32.09;100335.50;5060578;28;20004;-76
2023/10/05 10:30:36;;;;;;;;;;;;;;;26.00;33.48;100331.78;5053726;28;19917;-76
2023/10/05 10:33:30;;;;;;;;;;;;;;;25.97;31.92;100316.09;5070143;28;19920;-75
2023/10/05 10:35:56;;;;;;;;;;;;;;;25.75;33.35;100309.97;5067674;28;19912;-77
2023/10/05 10:38:21;;;;;;;;;;;;;;;25.65;33.65;100316.94;5069204;28;19992;-77
2023/10/05 10:41:06;;;;;;;;;;;;;;;25.49;33.02;100312.44;5071792;28;19959;-78
2023/10/05 10:43:32;;;;;;;;;;;;;;;25.49;33.63;100307.03;5071321;28;19971;-75
2023/10/05 10:45:59;;;;;;;;;;;;;;;25.64;33.16;100296.34;5068592;28;19920;-76
2023/10/05 10:48:29;;;;;;;;;;;;;;;25.65;33.49;100297.16;5055196;28;20008;-77
2023/10/05 10:50:59;;;;;;;;;;;;;;;25.86;33.69;100290.84;5056504;28;20007;-75
2023/10/05 10:53:25;;;;;;;;;;;;;;;26.04;33.38;100288.81;5067826;28;19970;-78
2023/10/05 10:56:04;;;;;;;;;;;;;;;26.23;32.77;100284.59;5072946;28;20456;-77
2023/10/05 10:58:30;;;;;;;;;;;;;;;26.45;32.59;100281.75;5070552;28;20290;-77
2023/10/05 11:00:57;;;;;;;;;;;;;;;26.57;32.48;100276.91;5069474;28;19970;-78
2023/10/05 11:03:26;;;;;;;;;;;;;;;26.75;32.79;100270.19;5071532;28;19977;-78
2023/10/05 11:05:54;;;;;;;;;;;;;;;26.96;31.67;100268.38;5072993;28;19916;-76
2023/10/05 11:08:23;;;;;;;;;;;;;;;27.02;32.55;100272.75;5068160;28;19924;-77
2023/10/05 11:11:00;;;;;;;;;;;;;;;27.07;31.55;100268.16;5071421;28;19925;-77
2023/10/05 11:13:26;;;;;;;;;;;;;;;27.23;31.63;100263.56;5072670;28;19978;-76
2023/10/05 11:15:58;;;;;;;;;;;;;;;27.37;31.63;100261.94;5071594;28;20346;-77
2023/10/05 11:18:26;;;;;;;;;;;;;;;27.58;31.22;100254.63;5063985;28;19916;-75
2023/10/05 11:20:52;;;;;;;;;;;;;;;27.77;31.59;100244.84;5071078;28;19917;-76
2023/10/05 11:23:26;;;;;;;;;;;;;;;27.80;30.26;100243.50;5071710;28;19923;-78
2023/10/05 11:25:54;;;;;;;;;;;;;;;27.80;29.94;100240.78;5054338;28;20347;-77
2023/10/05 11:28:24;;;;;;;;;;;;;;;27.78;30.04;100246.50;5051431;28;19913;-77
2023/10/05 11:30:49;;;;;;;;;;;;;;;27.77;30.70;100234.00;5053640;28;20452;-76
2023/10/05 11:33:18;;;;;;;;;;;;;;;27.77;30.08;100228.59;5069461;28;19962;-76
2023/10/05 11:35:48;;;;;;;;;;;;;;;27.71;30.46;100228.88;5071249;28;20026;-78
2023/10/05 11:38:15;;;;;;;;;;;;;;;27.58;30.95;100222.06;5072288;28;20408;-78
2023/10/05 11:40:49;;;;;;;;;;;;;;;27.46;31.03;100219.63;5072211;28;19912;-77
2023/10/05 11:43:20;;;;;;;;;;;;;;;27.36;31.07;100216.91;5061263;28;19975;-78
2023/10/05 11:45:58;;;;;;;;;;;;;;;27.27;31.65;100223.97;5057716;28;19924;-76
2023/10/05 11:48:47;;;;;;;;;;;;;;;27.13;31.05;100218.28;5080185;28;19912;-77
2023/10/05 11:51:13;;;;;;;;;;;;;;;27.02;31.29;100216.66;5053756;28;19920;-76
2023/10/05 11:53:39;;;;;;;;;;;;;;;26.90;31.73;100216.06;5060801;28;19948;-78
2023/10/05 11:56:05;;;;;;;;;;;;;;;26.80;31.39;100213.34;5061106;28;19917;-78
2023/10/05 11:58:37;;;;;;;;;;;;;;;26.64;31.77;100217.06;5071838;28;20300;-77
2023/10/05 12:01:03;;;;;;;;;;;;;;;26.50;31.76;100209.47;5069302;28;19916;-77
2023/10/05 12:03:31;;;;;;;;;;;;;;;26.42;31.88;100211.88;5072391;28;19920;-76
2023/10/05 12:06:01;;;;;;;;;;;;;;;26.28;32.74;100209.63;5062733;28;20325;-77
2023/10/05 12:08:30;;;;;;;;;;;;;;;26.19;32.66;100200.38;5050638;28;19914;-77
2023/10/05 12:10:59;;;;;;;;;;;;;;;26.12;33.01;100199.81;5048659;28;20003;-78
2023/10/05 12:13:27;;;;;;;;;;;;;;;26.04;32.72;100203.03;5055754;28;20316;-78
2023/10/05 12:15:53;;;;;;;;;;;;;;;25.97;32.81;100211.38;5071837;28;20442;-75
2023/10/05 12:18:18;;;;;;;;;;;;;;;25.93;32.67;100201.31;5071747;28;19908;-78
2023/10/05 12:20:45;;;;;;;;;;;;;;;25.91;32.95;100198.06;5066612;28;19974;-78
2023/10/05 12:23:14;;;;;;;;;;;;;;;25.87;33.11;100194.25;5071466;28;19970;-78
2023/10/05 12:25:40;;;;;;;;;;;;;;;25.85;33.10;100199.94;5071506;28;19916;-76
2023/10/05 12:28:05;;;;;;;;;;;;;;;25.83;32.88;100188.56;5071406;28;19919;-76
2023/10/05 12:30:31;;;;;;;;;;;;;;;25.84;33.19;100189.38;5069753;28;20294;-76
2023/10/05 12:32:56;;;;;;;;;;;;;;;25.83;33.32;100188.56;5070254;28;19999;-79
2023/10/05 12:35:23;;;;;;;;;;;;;;;25.82;33.67;100189.63;5071477;28;19919;-77
2023/10/05 12:37:49;;;;;;;;;;;;;;;25.75;33.48;100180.94;5072090;28;19913;-78
2023/10/05 12:40:26;;;;;;;;;;;;;;;25.71;33.32;100179.03;5074896;28;19916;-78
2023/10/05 12:42:55;;;;;;;;;;;;;;;25.68;33.60;100185.78;5076433;28;19924;-78
2023/10/05 12:45:24;;;;;;;;;;;;;;;25.65;34.15;100187.13;5073262;28;19946;-76
2023/10/05 12:47:53;;;;;;;;;;;;;;;25.66;33.58;100179.81;5071088;28;20294;-77
2023/10/05 12:50:19;;;;;;;;;;;;;;;25.65;33.39;100181.72;5073136;28;19920;-77
2023/10/05 12:52:44;;;;;;;;;;;;;;;25.67;33.97;100180.63;5075457;28;20373;-78
2023/10/05 12:55:10;;;;;;;;;;;;;;;25.64;33.06;100187.34;5075290;28;19920;-75
2023/10/05 12:57:36;;;;;;;;;;;;;;;25.62;33.84;100194.91;5075472;28;20312;-76
2023/10/05 13:00:19;;;;;;;;;;;;;;;25.61;33.57;100177.88;5075181;28;20450;-78
2023/10/05 13:02:44;;;;;;;;;;;;;;;25.64;33.95;100171.94;5075051;28;20405;-77
2023/10/05 13:05:09;;;;;;;;;;;;;;;25.68;33.36;100169.56;5075236;28;19951;-78